createdAt,value
2019-05-07T00:00:43.758Z,8.20
2019-05-07T00:03:09.842Z,8.20
2019-05-07T00:05:36.174Z,8.20
2019-05-07T00:08:02.994Z,8.20
2019-05-07T00:10:29.771Z,8.20
2019-05-07T00:12:58.117Z,8.20
2019-05-07T00:15:24.398Z,8.20
2019-05-07T00:17:52.216Z,8.20
2019-05-07T00:20:18.606Z,8.20
2019-05-07T00:22:44.908Z,8.20
2019-05-07T00:25:12.389Z,8.20
2019-05-07T00:27:38.808Z,8.20
2019-05-07T00:30:07.111Z,8.20
2019-05-07T00:32:35.555Z,8.20
2019-05-07T00:35:02.517Z,8.20
2019-05-07T00:37:28.961Z,8.20
2019-05-07T00:39:55.250Z,8.20
2019-05-07T00:42:22.177Z,8.10
2019-05-07T00:44:48.543Z,8.10
2019-05-07T00:47:14.822Z,8.10
2019-05-07T00:49:42.565Z,8.10
2019-05-07T00:52:11.410Z,8.10
2019-05-07T00:54:36.927Z,8.10
2019-05-07T00:57:03.255Z,8.00
2019-05-07T00:59:29.557Z,8.00
2019-05-07T01:01:55.846Z,8.00
2019-05-07T01:04:22.936Z,8.10
2019-05-07T01:06:49.390Z,8.00
2019-05-07T01:09:15.709Z,8.00
2019-05-07T01:11:42.888Z,8.00
2019-05-07T01:14:09.420Z,7.90
2019-05-07T01:16:35.662Z,7.90
2019-05-07T01:19:02.229Z,7.90
2019-05-07T01:21:28.567Z,7.90
2019-05-07T01:23:54.841Z,7.90
2019-05-07T01:26:21.882Z,7.90
2019-05-07T01:28:48.503Z,7.90
2019-05-07T01:31:14.758Z,7.90
2019-05-07T01:33:42.414Z,7.90
2019-05-07T01:36:08.891Z,7.90
2019-05-07T01:38:35.189Z,7.90
2019-05-07T01:41:02.885Z,7.80
2019-05-07T01:43:29.361Z,7.90
2019-05-07T01:45:55.644Z,7.80
2019-05-07T01:48:23.013Z,7.80
2019-05-07T01:50:49.610Z,7.80
2019-05-07T01:53:15.856Z,7.80
2019-05-07T01:55:42.822Z,7.80
2019-05-07T01:58:09.383Z,7.70
2019-05-07T02:00:35.665Z,7.70
2019-05-07T02:03:02.828Z,7.70
2019-05-07T02:05:29.242Z,7.60
2019-05-07T02:07:55.511Z,7.70
2019-05-07T02:10:22.737Z,7.70
2019-05-07T02:12:49.118Z,7.80
2019-05-07T02:15:15.392Z,7.80
2019-05-07T02:17:43.022Z,7.70
2019-05-07T02:20:09.545Z,7.70
2019-05-07T02:22:35.956Z,7.70
2019-05-07T02:25:03.282Z,7.60
2019-05-07T02:27:29.765Z,7.60
2019-05-07T02:29:56.040Z,7.60
2019-05-07T02:32:24.060Z,7.60
2019-05-07T02:34:50.284Z,7.60
2019-05-07T02:37:16.732Z,7.60
2019-05-07T02:39:44.281Z,7.60
2019-05-07T02:42:13.083Z,7.60
2019-05-07T02:44:38.919Z,7.70
2019-05-07T02:47:05.217Z,7.60
2019-05-07T02:49:32.768Z,7.50
2019-05-07T02:52:04.146Z,7.70
2019-05-07T02:54:32.591Z,7.60
2019-05-07T02:56:57.676Z,7.60
2019-05-07T02:59:24.420Z,7.50
2019-05-07T03:01:53.470Z,7.60
2019-05-07T03:04:18.712Z,7.60
2019-05-07T03:06:44.982Z,7.50
2019-05-07T03:09:14.136Z,7.60
2019-05-07T03:11:39.259Z,7.60
2019-05-07T03:14:05.546Z,7.60
2019-05-07T03:16:39.668Z,7.60
2019-05-07T03:19:04.122Z,7.60
2019-05-07T03:21:32.739Z,7.60
2019-05-07T03:23:58.072Z,7.60
2019-05-07T03:26:24.374Z,7.60
2019-05-07T03:28:53.437Z,7.60
2019-05-07T03:31:18.634Z,7.50
2019-05-07T03:33:47.056Z,7.60
2019-05-07T03:36:16.492Z,7.60
2019-05-07T03:38:43.710Z,7.60
2019-05-07T03:41:08.853Z,7.50
2019-05-07T03:43:35.125Z,7.50
2019-05-07T03:46:03.632Z,7.60
2019-05-07T03:48:29.431Z,7.50
2019-05-07T03:50:55.681Z,7.50
2019-05-07T03:53:23.204Z,7.50
2019-05-07T03:55:49.902Z,7.50
2019-05-07T03:58:18.608Z,7.50
2019-05-07T04:00:44.866Z,7.50
2019-05-07T04:03:13.929Z,7.40
2019-05-07T04:05:39.210Z,7.40
2019-05-07T04:08:07.180Z,7.60
2019-05-07T04:10:34.041Z,7.50
2019-05-07T04:13:00.525Z,7.50
2019-05-07T04:15:26.801Z,7.50
2019-05-07T04:17:53.715Z,7.50
2019-05-07T04:20:20.131Z,7.40
2019-05-07T04:22:46.384Z,7.40
2019-05-07T04:25:13.330Z,7.50
2019-05-07T04:27:44.180Z,7.50
2019-05-07T04:30:07.835Z,7.50
2019-05-07T04:32:34.091Z,7.60
2019-05-07T04:35:03.582Z,7.60
2019-05-07T04:37:28.352Z,7.60
2019-05-07T04:39:54.635Z,7.50
2019-05-07T04:42:24.026Z,7.60
2019-05-07T04:44:48.975Z,7.60
2019-05-07T04:47:32.696Z,7.50
2019-05-07T04:49:43.657Z,7.50
2019-05-07T04:52:12.503Z,7.40
2019-05-07T04:54:38.455Z,7.50
2019-05-07T04:57:04.767Z,7.50
2019-05-07T04:59:32.995Z,7.50
2019-05-07T05:01:59.014Z,7.50
2019-05-07T05:04:30.756Z,7.50
2019-05-07T05:06:53.286Z,7.50
2019-05-07T05:09:19.672Z,7.60
2019-05-07T05:11:46.032Z,7.60
2019-05-07T05:14:13.710Z,7.60
2019-05-07T05:16:42.400Z,7.60
2019-05-07T05:19:08.216Z,7.60
2019-05-07T05:21:34.478Z,7.70
2019-05-07T05:24:01.809Z,7.70
2019-05-07T05:26:28.332Z,7.70
2019-05-07T05:28:54.584Z,7.80
2019-05-07T05:31:22.293Z,7.90
2019-05-07T05:33:48.694Z,7.80
2019-05-07T05:36:14.956Z,7.80
2019-05-07T05:38:42.341Z,7.90
2019-05-07T05:41:08.990Z,7.90
2019-05-07T05:43:35.258Z,8.00
2019-05-07T05:46:02.702Z,8.00
2019-05-07T05:48:29.268Z,8.10
2019-05-07T05:50:55.559Z,8.10
2019-05-07T05:53:21.943Z,8.10
2019-05-07T05:55:52.700Z,8.10
2019-05-07T05:58:18.470Z,8.10
2019-05-07T06:00:44.742Z,8.10
2019-05-07T06:03:11.946Z,8.10
2019-05-07T06:05:38.334Z,8.10
2019-05-07T06:08:04.632Z,8.10
2019-05-07T06:10:32.896Z,8.20
2019-05-07T06:12:58.946Z,8.20
2019-05-07T06:15:25.196Z,8.20
2019-05-07T06:17:51.926Z,8.20
2019-05-07T06:20:18.307Z,8.30
2019-05-07T06:22:44.586Z,8.30
2019-05-07T06:25:14.447Z,8.30
2019-05-07T06:27:38.830Z,8.40
2019-05-07T06:30:05.191Z,8.40
2019-05-07T06:32:32.058Z,8.50
2019-05-07T06:34:58.503Z,8.50
2019-05-07T06:37:24.851Z,8.50
2019-05-07T06:39:52.941Z,8.60
2019-05-07T06:42:19.126Z,8.60
2019-05-07T06:44:45.404Z,8.70
2019-05-07T06:47:13.055Z,8.70
2019-05-07T06:49:39.518Z,8.70
2019-05-07T06:52:05.775Z,8.70
2019-05-07T06:54:32.226Z,8.70
2019-05-07T06:56:58.594Z,8.70
2019-05-07T06:59:24.893Z,8.80
2019-05-07T07:01:52.986Z,8.80
2019-05-07T07:04:19.146Z,8.90
2019-05-07T07:06:45.391Z,9.00
2019-05-07T07:09:12.657Z,9.10
2019-05-07T07:11:39.120Z,9.10
2019-05-07T07:14:05.446Z,9.10
2019-05-07T07:16:37.026Z,9.20
2019-05-07T07:19:03.488Z,9.20
2019-05-07T07:21:29.843Z,9.10
2019-05-07T07:23:56.114Z,9.10
2019-05-07T07:26:22.387Z,9.30
2019-05-07T07:28:48.741Z,9.30
2019-05-07T07:31:15.030Z,9.40
2019-05-07T07:33:43.553Z,9.50
2019-05-07T07:36:09.342Z,9.50
2019-05-07T07:38:35.614Z,9.50
2019-05-07T07:41:03.868Z,9.60
2019-05-07T07:43:29.878Z,9.60
2019-05-07T07:45:56.421Z,9.70
2019-05-07T07:48:24.920Z,9.70
2019-05-07T07:50:52.978Z,9.70
2019-05-07T07:53:19.243Z,9.70
2019-05-07T07:55:45.531Z,9.80
2019-05-07T07:58:12.111Z,9.90
2019-05-07T08:00:38.564Z,9.90
2019-05-07T08:03:04.830Z,9.90
2019-05-07T08:05:35.172Z,10.00
2019-05-07T08:08:02.326Z,10.10
2019-05-07T08:10:28.801Z,10.20
2019-05-07T08:12:55.097Z,10.30
2019-05-07T08:15:24.476Z,10.40
2019-05-07T08:17:55.257Z,10.50
2019-05-07T08:20:22.228Z,10.60
2019-05-07T08:22:48.670Z,10.80
2019-05-07T08:25:14.975Z,10.90
2019-05-07T08:27:41.987Z,10.90
2019-05-07T08:32:42.525Z,10.80
2019-05-07T08:35:08.982Z,10.90
2019-05-07T08:37:35.271Z,10.90
2019-05-07T08:40:03.063Z,10.80
2019-05-07T08:42:31.905Z,10.80
2019-05-07T08:44:57.610Z,10.80
2019-05-07T08:47:23.934Z,10.70
2019-05-07T08:49:52.230Z,10.70
2019-05-07T08:52:18.179Z,10.60
2019-05-07T08:54:44.454Z,10.50
2019-05-07T08:57:12.196Z,10.40
2019-05-07T08:59:38.720Z,10.40
2019-05-07T09:02:05.050Z,10.40
2019-05-07T09:04:32.686Z,10.40
2019-05-07T09:06:59.316Z,10.40
2019-05-07T09:09:27.672Z,10.30
2019-05-07T09:11:53.950Z,10.30
2019-05-07T09:14:22.862Z,10.30
2019-05-07T09:16:48.635Z,10.20
2019-05-07T09:19:14.922Z,10.20
2019-05-07T09:21:42.893Z,10.30
2019-05-07T09:24:09.399Z,10.20
2019-05-07T09:26:35.657Z,10.20
2019-05-07T09:29:02.639Z,10.30
2019-05-07T09:31:29.030Z,10.30
2019-05-07T09:33:55.338Z,10.40
2019-05-07T09:36:22.813Z,10.50
2019-05-07T09:38:58.366Z,10.60
2019-05-07T09:41:17.255Z,10.80
2019-05-07T09:43:43.583Z,11.00
2019-05-07T09:46:09.890Z,11.10
2019-05-07T09:48:36.211Z,11.30
2019-05-07T09:51:02.649Z,11.40
2019-05-07T09:53:28.940Z,11.40
2019-05-07T09:55:55.207Z,11.40
2019-05-07T09:58:35.010Z,11.40
2019-05-07T10:00:49.511Z,11.40
2019-05-07T10:03:15.818Z,11.40
2019-05-07T10:05:42.716Z,11.50
2019-05-07T10:08:09.249Z,11.40
2019-05-07T10:10:35.530Z,11.40
2019-05-07T10:13:01.961Z,11.40
2019-05-07T10:15:28.334Z,11.40
2019-05-07T10:17:54.832Z,11.40
2019-05-07T10:20:22.648Z,11.40
2019-05-07T10:22:49.261Z,11.40
2019-05-07T10:25:15.571Z,11.40
2019-05-07T10:27:42.001Z,11.50
2019-05-07T10:30:08.294Z,11.60
2019-05-07T10:32:34.567Z,11.50
2019-05-07T10:35:02.149Z,11.50
2019-05-07T10:37:28.714Z,11.50
2019-05-07T10:39:55.038Z,11.40
2019-05-07T10:42:22.705Z,11.30
2019-05-07T10:44:49.334Z,11.30
2019-05-07T10:47:15.595Z,11.40
2019-05-07T10:49:42.278Z,11.40
2019-05-07T10:52:12.562Z,11.40
2019-05-07T10:54:38.991Z,11.40
2019-05-07T10:57:05.268Z,11.30
2019-05-07T10:59:31.506Z,11.40
2019-05-07T11:01:57.788Z,11.40
2019-05-07T11:04:24.089Z,11.50
2019-05-07T11:06:52.167Z,11.40
2019-05-07T11:09:18.360Z,11.40
2019-05-07T11:11:44.628Z,11.40
2019-05-07T11:14:12.286Z,11.30
2019-05-07T11:16:38.743Z,11.40
2019-05-07T11:19:04.984Z,11.30
2019-05-07T11:21:33.352Z,11.30
2019-05-07T11:23:59.249Z,11.20
2019-05-07T11:26:25.532Z,11.20
2019-05-07T11:28:51.810Z,11.20
2019-05-07T11:31:18.096Z,11.30
2019-05-07T11:33:44.400Z,11.30
2019-05-07T11:36:10.856Z,11.30
2019-05-07T11:38:37.351Z,11.30
2019-05-07T11:41:05.903Z,11.30
2019-05-07T11:43:32.638Z,11.30
2019-05-07T11:45:59.278Z,11.50
2019-05-07T11:48:25.690Z,11.50
2019-05-07T11:51:01.387Z,11.50
2019-05-07T11:53:21.978Z,11.60
2019-05-07T11:55:48.039Z,11.60
2019-05-07T11:58:14.291Z,11.70
2019-05-07T12:00:42.480Z,11.70
2019-05-07T12:03:08.579Z,11.80
2019-05-07T12:05:34.881Z,11.90
2019-05-07T12:08:02.395Z,11.90
2019-05-07T12:10:28.874Z,11.90
2019-05-07T12:12:55.182Z,11.70
2019-05-07T12:15:21.817Z,11.90
2019-05-07T12:17:48.206Z,12.00
2019-05-07T12:20:14.496Z,12.10
2019-05-07T12:22:42.422Z,12.00
2019-05-07T12:25:08.878Z,12.00
2019-05-07T12:27:35.179Z,12.00
2019-05-07T12:30:01.455Z,11.90
2019-05-07T12:32:27.756Z,11.90
2019-05-07T12:34:54.054Z,11.60
2019-05-07T12:37:22.428Z,11.70
2019-05-07T12:39:48.335Z,11.60
2019-05-07T12:42:14.615Z,11.60
2019-05-07T12:44:42.477Z,11.50
2019-05-07T12:47:09.027Z,11.50
2019-05-07T12:49:35.351Z,11.50
2019-05-07T12:52:02.270Z,11.40
2019-05-07T12:54:28.842Z,11.50
2019-05-07T12:56:55.115Z,11.50
2019-05-07T12:59:21.891Z,11.50
2019-05-07T13:01:48.444Z,11.50
2019-05-07T13:04:14.754Z,11.60
2019-05-07T13:06:41.020Z,11.50
2019-05-07T13:09:07.326Z,11.40
2019-05-07T13:11:33.623Z,11.50
2019-05-07T13:14:02.001Z,11.60
2019-05-07T13:16:28.057Z,11.60
2019-05-07T13:18:54.383Z,11.70
2019-05-07T13:21:22.551Z,11.70
2019-05-07T13:23:48.781Z,11.70
2019-05-07T13:26:15.189Z,11.80
2019-05-07T13:28:41.956Z,11.80
2019-05-07T13:31:09.508Z,11.80
2019-05-07T13:33:35.783Z,11.90
2019-05-07T13:36:02.356Z,12.00
2019-05-07T13:38:28.720Z,12.10
2019-05-07T13:40:55.019Z,12.10
2019-05-07T13:43:23.036Z,12.10
2019-05-07T13:45:49.335Z,12.20
2019-05-07T13:48:15.591Z,12.20
2019-05-07T13:50:42.030Z,12.20
2019-05-07T13:53:08.432Z,12.40
2019-05-07T13:55:34.736Z,12.40
2019-05-07T13:58:01.029Z,12.50
2019-05-07T14:00:27.289Z,12.50
2019-05-07T14:02:54.936Z,12.40
2019-05-07T14:05:21.802Z,12.60
2019-05-07T14:07:48.228Z,12.70
2019-05-07T14:10:14.492Z,12.70
2019-05-07T14:12:42.526Z,12.80
2019-05-07T14:15:08.983Z,12.80
2019-05-07T14:17:35.283Z,12.80
2019-05-07T14:20:01.826Z,12.80
2019-05-07T14:22:31.675Z,12.90
2019-05-07T14:24:57.551Z,12.90
2019-05-07T14:27:23.847Z,12.90
2019-05-07T14:29:52.040Z,12.90
2019-05-07T14:32:18.161Z,12.90
2019-05-07T14:34:44.461Z,12.90
2019-05-07T14:37:12.908Z,12.90
2019-05-07T14:39:39.391Z,12.70
2019-05-07T14:42:05.712Z,12.80
2019-05-07T14:44:31.999Z,12.80
2019-05-07T14:46:58.253Z,12.70
2019-05-07T14:49:24.562Z,12.80
2019-05-07T14:51:53.907Z,12.80
2019-05-07T14:54:18.844Z,12.90
2019-05-07T14:56:45.187Z,12.80
2019-05-07T14:59:12.795Z,12.70
2019-05-07T15:01:39.246Z,12.70
2019-05-07T15:04:05.534Z,12.70
2019-05-07T15:06:32.556Z,12.70
2019-05-07T15:08:59.081Z,12.80
2019-05-07T15:11:25.364Z,12.80
2019-05-07T15:13:52.181Z,12.80
2019-05-07T15:16:18.666Z,12.80
2019-05-07T15:18:44.965Z,12.80
2019-05-07T15:21:12.307Z,12.90
2019-05-07T15:23:38.795Z,12.90
2019-05-07T15:26:05.053Z,12.90
2019-05-07T15:28:32.318Z,12.90
2019-05-07T15:30:58.707Z,13.00
2019-05-07T15:33:24.971Z,12.90
2019-05-07T15:35:52.031Z,12.90
2019-05-07T15:38:18.625Z,13.00
2019-05-07T15:40:44.916Z,12.90
2019-05-07T15:43:12.883Z,12.80
2019-05-07T15:45:39.253Z,12.90
2019-05-07T15:48:05.553Z,12.80
2019-05-07T15:50:32.210Z,12.90
2019-05-07T15:52:58.937Z,13.00
2019-05-07T15:55:25.382Z,13.00
2019-05-07T15:57:52.154Z,13.00
2019-05-07T16:00:21.785Z,13.00
2019-05-07T16:02:48.249Z,13.00
2019-05-07T16:05:14.569Z,13.00
2019-05-07T16:07:41.947Z,13.00
2019-05-07T16:10:08.400Z,13.00
2019-05-07T16:12:34.713Z,13.00
2019-05-07T16:15:02.983Z,13.10
2019-05-07T16:17:29.000Z,13.00
2019-05-07T16:19:55.298Z,13.00
2019-05-07T16:22:22.223Z,13.00
2019-05-07T16:24:48.619Z,13.10
2019-05-07T16:27:14.905Z,13.10
2019-05-07T16:29:42.104Z,13.00
2019-05-07T16:32:08.589Z,13.00
2019-05-07T16:34:34.858Z,13.00
2019-05-07T16:37:03.498Z,12.90
2019-05-07T16:39:29.186Z,12.90
2019-05-07T16:41:55.571Z,12.90
2019-05-07T16:44:22.522Z,12.80
2019-05-07T16:46:49.039Z,12.80
2019-05-07T16:49:15.375Z,12.80
2019-05-07T16:51:44.571Z,12.80
2019-05-07T16:54:12.010Z,12.70
2019-05-07T16:56:37.826Z,12.60
2019-05-07T16:59:04.157Z,12.60
2019-05-07T17:01:32.419Z,12.60
2019-05-07T17:03:58.469Z,12.60
2019-05-07T17:06:25.213Z,12.60
2019-05-07T17:08:51.806Z,12.60
2019-05-07T17:11:18.105Z,12.60
2019-05-07T17:13:44.707Z,12.60
2019-05-07T17:16:12.363Z,12.60
2019-05-07T17:18:39.021Z,12.50
2019-05-07T17:21:05.381Z,12.50
2019-05-07T17:23:43.664Z,12.40
2019-05-07T17:25:59.742Z,12.50
2019-05-07T17:28:28.386Z,12.40
2019-05-07T17:30:54.683Z,12.40
2019-05-07T17:33:22.993Z,12.40
2019-05-07T17:35:49.106Z,12.40
2019-05-07T17:38:15.388Z,12.40
2019-05-07T17:40:42.394Z,12.30
2019-05-07T17:43:08.844Z,12.40
2019-05-07T17:45:35.157Z,12.20
2019-05-07T17:48:03.147Z,12.20
2019-05-07T17:50:29.432Z,12.20
2019-05-07T17:52:55.699Z,12.20
2019-05-07T17:55:22.363Z,12.10
2019-05-07T17:57:48.766Z,12.10
2019-05-07T18:00:15.118Z,12.10
2019-05-07T18:02:42.147Z,12.00
2019-05-07T18:05:08.580Z,12.00
2019-05-07T18:07:36.798Z,11.90
2019-05-07T18:10:02.908Z,11.80
2019-05-07T18:12:29.255Z,11.80
2019-05-07T18:14:55.622Z,11.70
2019-05-07T18:17:22.058Z,11.60
2019-05-07T18:19:48.508Z,11.50
2019-05-07T18:22:14.794Z,11.50
2019-05-07T18:24:41.959Z,11.40
2019-05-07T18:27:08.390Z,11.40
2019-05-07T18:29:34.810Z,11.30
2019-05-07T18:32:01.070Z,11.20
2019-05-07T18:34:27.407Z,11.10
2019-05-07T18:36:53.741Z,11.00
2019-05-07T18:39:20.480Z,11.00
2019-05-07T18:41:52.144Z,10.90
2019-05-07T18:44:18.196Z,10.80
2019-05-07T18:46:44.647Z,10.80
2019-05-07T18:49:12.985Z,10.70
2019-05-07T18:51:39.312Z,10.60
2019-05-07T18:54:05.605Z,10.70
2019-05-07T18:56:31.943Z,10.50
2019-05-07T18:58:58.217Z,10.50
2019-05-07T19:01:24.970Z,10.50
2019-05-07T19:03:52.554Z,10.40
2019-05-07T19:06:19.132Z,10.30
2019-05-07T19:08:45.432Z,10.30
2019-05-07T19:11:12.380Z,10.20
2019-05-07T19:13:38.902Z,10.20
2019-05-07T19:16:05.240Z,10.20
2019-05-07T19:18:32.192Z,10.20
2019-05-07T19:20:58.650Z,10.20
2019-05-07T19:23:24.992Z,10.00
2019-05-07T19:25:52.268Z,10.00
2019-05-07T19:28:19.139Z,9.90
2019-05-07T19:30:45.471Z,9.90
2019-05-07T19:33:12.456Z,9.90
2019-05-07T19:35:38.945Z,9.90
2019-05-07T19:38:05.401Z,9.90
2019-05-07T19:40:32.548Z,9.80
2019-05-07T19:42:58.997Z,9.70
2019-05-07T19:45:25.283Z,9.60
2019-05-07T19:47:52.347Z,9.60
2019-05-07T19:50:18.878Z,9.50
2019-05-07T19:52:45.445Z,9.60
2019-05-07T19:55:11.752Z,9.50
2019-05-07T19:57:38.143Z,9.50
2019-05-07T20:00:04.437Z,9.40
2019-05-07T20:02:32.112Z,9.30
2019-05-07T20:04:58.620Z,9.20
2019-05-07T20:07:25.039Z,9.20
2019-05-07T20:09:52.470Z,9.20
2019-05-07T20:12:19.253Z,9.10
2019-05-07T20:14:45.619Z,9.00
2019-05-07T20:17:12.346Z,9.00
2019-05-07T20:19:38.959Z,8.90
2019-05-07T20:22:05.326Z,8.90
2019-05-07T20:24:32.960Z,8.80
2019-05-07T20:26:59.523Z,8.80
2019-05-07T20:29:25.842Z,8.80
2019-05-07T20:31:53.269Z,8.70
2019-05-07T20:34:22.004Z,8.60
2019-05-07T20:36:47.843Z,8.60
2019-05-07T20:39:14.137Z,8.50
2019-05-07T20:41:40.439Z,8.60
2019-05-07T20:44:08.443Z,8.60
2019-05-07T20:46:34.735Z,8.60
2019-05-07T20:49:02.762Z,8.60
2019-05-07T20:51:29.006Z,8.60
2019-05-07T20:53:55.400Z,8.60
2019-05-07T20:56:22.575Z,8.70
2019-05-07T20:58:48.972Z,8.70
2019-05-07T21:01:15.295Z,8.60
2019-05-07T21:03:42.904Z,8.50
2019-05-07T21:06:09.371Z,8.40
2019-05-07T21:08:35.761Z,8.30
2019-05-07T21:11:02.658Z,8.20
2019-05-07T21:13:32.443Z,8.20
2019-05-07T21:15:57.211Z,8.10
2019-05-07T21:18:23.621Z,8.10
2019-05-07T21:20:50.127Z,8.00
2019-05-07T21:23:18.458Z,8.00
2019-05-07T21:25:46.061Z,7.90
2019-05-07T21:28:12.528Z,7.90
2019-05-07T21:30:38.803Z,7.80
2019-05-07T21:33:05.063Z,7.70
2019-05-07T21:35:31.989Z,7.60
2019-05-07T21:37:58.555Z,7.50
2019-05-07T21:40:25.113Z,7.60
2019-05-07T21:42:52.063Z,7.50
2019-05-07T21:45:18.570Z,7.50
2019-05-07T21:47:44.963Z,7.40
2019-05-07T21:50:12.458Z,7.40
2019-05-07T21:52:39.507Z,7.40
2019-05-07T21:55:05.915Z,7.30
2019-05-07T21:57:32.979Z,7.30
2019-05-07T22:00:02.282Z,7.30
2019-05-07T22:02:28.666Z,7.20
2019-05-07T22:04:54.943Z,7.20
2019-05-07T22:07:22.768Z,7.00
2019-05-07T22:09:49.186Z,7.00
2019-05-07T22:12:15.431Z,6.90
2019-05-07T22:14:41.702Z,6.90
2019-05-07T22:17:08.049Z,6.80
2019-05-07T22:19:34.329Z,6.80
2019-05-07T22:22:02.777Z,6.80
2019-05-07T22:24:28.602Z,6.80
2019-05-07T22:26:54.867Z,6.80
2019-05-07T22:29:22.771Z,6.70
2019-05-07T22:31:49.323Z,6.70
2019-05-07T22:34:15.579Z,6.70
2019-05-07T22:36:43.129Z,6.70
2019-05-07T22:39:09.607Z,6.80
2019-05-07T22:41:35.889Z,6.80
2019-05-07T22:44:02.650Z,6.80
2019-05-07T22:46:29.081Z,6.60
2019-05-07T22:48:55.381Z,6.60
2019-05-07T22:51:22.847Z,6.60
2019-05-07T22:53:49.310Z,6.60
2019-05-07T22:56:15.573Z,6.70
2019-05-07T22:58:42.049Z,6.60
2019-05-07T23:01:08.405Z,6.60
2019-05-07T23:03:34.701Z,6.70
2019-05-07T23:06:02.726Z,6.70
2019-05-07T23:08:29.204Z,6.80
2019-05-07T23:10:55.498Z,6.80
2019-05-07T23:13:22.613Z,6.80
2019-05-07T23:15:49.025Z,6.90
2019-05-07T23:18:15.284Z,6.80
2019-05-07T23:20:42.712Z,6.70
2019-05-07T23:23:09.293Z,6.70
2019-05-07T23:25:35.583Z,6.60
2019-05-07T23:28:04.881Z,6.60
2019-05-07T23:30:29.861Z,6.60
2019-05-07T23:32:56.174Z,6.50
2019-05-07T23:35:22.451Z,6.30
2019-05-07T23:37:48.709Z,6.30
2019-05-07T23:40:15.006Z,6.40
2019-05-07T23:42:42.377Z,6.30
2019-05-07T23:45:08.867Z,6.30
2019-05-07T23:47:35.369Z,6.40
2019-05-07T23:50:02.126Z,6.50
2019-05-07T23:52:28.511Z,6.50
2019-05-07T23:54:54.829Z,6.50
2019-05-07T23:57:23.352Z,6.40
2019-05-07T23:59:50.045Z,6.40
